Taylor, WI (54659)

10:15 AM CDT on October 24, 2014 (GMT -0500)
Black River Falls Area | Change Station
CLOSE
Current Station
Airport
Location: Black River Falls,
Elevation: 837 ft
Nearby Weather Stations
Active Advisory: Dense Fog Advisory

Elev 837 ft 44.25 °N, 90.86 °W | Updated 20 minutes ago

Overcast
Overcast
49 °F
Feels Like 49 °F
N
4
Wind Variable Wind from SE

Today
High -- | Low -- °F
--% Chance of Precip.
Yesterday
High -- | Low -- °F
Precip. -- in
7:30 AM 6:05 PM
New Moon, 1% visible
Pressure 29.99 in
Visibility 2.0 miles
Clouds Overcast 200 ft
Dew Point 49 °F
Humidity 100%
Rainfall 0.00 in
Snow Depth Not available.
UV 1 out of 12
Pollen 1.30 out of 12
Air Quality Not available.
Flu Activity Sporadic
METAR KBCK 241455Z AUTO 14003KT 2SM BR OVC002 10/10 A2999 RMK AO2 T00950095

More Conditions Fewer Conditions

Pressure 29.99 in
Visibility 2.0 miles
Clouds Overcast 200 ft
Dew Point 49 °F
Humidity 100%
Rainfall 0.00 in
Snow Depth Not available.
UV 1 out of 12
Pollen 1.30 out of 12
Air Quality Not available.
Flu Activity Sporadic
METAR KBCK 241455Z AUTO 14003KT 2SM BR OVC002 10/10 A2999 RMK AO2 T00950095

More Conditions Fewer Conditions

10-Day Weather Forecast

Almanac

Astronomy

Oct. 24, 2014 Rise Set
Actual Time 7:30 AM CDT 6:05 PM CDT
Civil Twilight 7:01 AM CDT 6:35 PM CDT
Nautical Twilight 6:27 AM CDT 7:09 PM CDT
Astronomical Twilight 5:53 AM CDT 7:42 PM CDT
Moon 8:11 AM CDT 6:43 PM CDT
Length of Visible Light 11h 33m
Length of Day
10h 34m
Tomorrow will be 2m 50s shorter.
New Moon, 1% of the Moon is Illuminated
Today
New Moon
Oct 30
First Quarter
Nov 6
Full
Nov 14
Last Quarter
Nov 22
New

Today's Extremes

State Highs State Lows

Community

WunderPhotos

Upload Photos

1,764,587 photos uploaded!

WunderBlogs® & News

Nearby

Snow Depth

Station Depth Elevation
No new snow has been reported.

Earthquake Activity

City Distance Mag. Time & Date
No recent earthquake activity has been reported nearby.
Minimum magnitude displayed is 2.5.

Coastal Water Temperatures

Place Temperature
No Stations Reporting

Nearby Weather Stations